sensor_id;sensor_type;location;lat;lon;timestamp;P1;durP1;ratioP1;P2;durP2;ratioP2
21272;SDS011;36726;52.328;10.552;2022-09-01T00:01:40;0.75;;;0.60;;
21272;SDS011;36726;52.328;10.552;2022-09-01T00:04:09;1.17;;;0.80;;
21272;SDS011;36726;52.328;10.552;2022-09-01T00:06:38;0.93;;;0.70;;
21272;SDS011;36726;52.328;10.552;2022-09-01T00:09:07;1.25;;;0.80;;
21272;SDS011;36726;52.328;10.552;2022-09-01T00:11:36;0.70;;;0.60;;
21272;SDS011;36726;52.328;10.552;2022-09-01T00:14:05;2.05;;;0.90;;
21272;SDS011;36726;52.328;10.552;2022-09-01T00:16:53;1.15;;;0.68;;
21272;SDS011;36726;52.328;10.552;2022-09-01T00:19:21;1.27;;;0.70;;
21272;SDS011;36726;52.328;10.552;2022-09-01T00:21:48;0.70;;;0.70;;
21272;SDS011;36726;52.328;10.552;2022-09-01T00:24:15;0.75;;;0.70;;
21272;SDS011;36726;52.328;10.552;2022-09-01T00:26:43;2.20;;;0.80;;
21272;SDS011;36726;52.328;10.552;2022-09-01T00:29:10;1.30;;;0.88;;
21272;SDS011;36726;52.328;10.552;2022-09-01T00:31:37;1.08;;;0.70;;
21272;SDS011;36726;52.328;10.552;2022-09-01T00:34:05;0.75;;;0.70;;
21272;SDS011;36726;52.328;10.552;2022-09-01T00:36:32;1.25;;;0.70;;
21272;SDS011;36726;52.328;10.552;2022-09-01T00:38:58;0.77;;;0.73;;
21272;SDS011;36726;52.328;10.552;2022-09-01T00:41:26;2.67;;;0.70;;
21272;SDS011;36726;52.328;10.552;2022-09-01T00:43:56;0.63;;;0.60;;
21272;SDS011;36726;52.328;10.552;2022-09-01T00:46:29;1.10;;;0.65;;
21272;SDS011;36726;52.328;10.552;2022-09-01T00:49:03;1.63;;;0.80;;
21272;SDS011;36726;52.328;10.552;2022-09-01T00:51:33;1.17;;;0.90;;
21272;SDS011;36726;52.328;10.552;2022-09-01T00:54:04;1.05;;;0.73;;
21272;SDS011;36726;52.328;10.552;2022-09-01T00:56:33;1.17;;;0.73;;
21272;SDS011;36726;52.328;10.552;2022-09-01T00:59:04;5.80;;;0.80;;
21272;SDS011;36726;52.328;10.552;2022-09-01T01:01:32;0.82;;;0.57;;
21272;SDS011;36726;52.328;10.552;2022-09-01T01:04:04;1.15;;;0.73;;
21272;SDS011;36726;52.328;10.552;2022-09-01T01:06:41;0.85;;;0.63;;
21272;SDS011;36726;52.328;10.552;2022-09-01T01:09:18;1.67;;;0.90;;
21272;SDS011;36726;52.328;10.552;2022-09-01T01:11:47;0.85;;;0.68;;
21272;SDS011;36726;52.328;10.552;2022-09-01T01:14:14;1.95;;;0.60;;
21272;SDS011;36726;52.328;10.552;2022-09-01T01:16:43;1.70;;;0.70;;
21272;SDS011;36726;52.328;10.552;2022-09-01T01:25:39;1.25;;;0.73;;
21272;SDS011;36726;52.328;10.552;2022-09-01T01:28:16;0.70;;;0.68;;
21272;SDS011;36726;52.328;10.552;2022-09-01T01:30:52;1.30;;;0.60;;
21272;SDS011;36726;52.328;10.552;2022-09-01T01:33:22;1.00;;;0.88;;
21272;SDS011;36726;52.328;10.552;2022-09-01T01:35:51;1.50;;;0.80;;
21272;SDS011;36726;52.328;10.552;2022-09-01T01:38:20;1.77;;;0.77;;
21272;SDS011;36726;52.328;10.552;2022-09-01T01:40:49;1.08;;;0.80;;
21272;SDS011;36726;52.328;10.552;2022-09-01T01:43:20;0.80;;;0.70;;
21272;SDS011;36726;52.328;10.552;2022-09-01T01:45:50;0.60;;;0.60;;
21272;SDS011;36726;52.328;10.552;2022-09-01T01:48:23;1.27;;;0.70;;
21272;SDS011;36726;52.328;10.552;2022-09-01T01:50:51;0.73;;;0.60;;
21272;SDS011;36726;52.328;10.552;2022-09-01T01:53:19;0.52;;;0.50;;
21272;SDS011;36726;52.328;10.552;2022-09-01T01:55:46;2.17;;;1.00;;
21272;SDS011;36726;52.328;10.552;2022-09-01T01:58:17;0.75;;;0.60;;
21272;SDS011;36726;52.328;10.552;2022-09-01T02:00:46;0.95;;;0.70;;
21272;SDS011;36726;52.328;10.552;2022-09-01T02:03:17;0.90;;;0.80;;
21272;SDS011;36726;52.328;10.552;2022-09-01T02:05:49;0.80;;;0.75;;
21272;SDS011;36726;52.328;10.552;2022-09-01T02:08:19;1.00;;;0.80;;
21272;SDS011;36726;52.328;10.552;2022-09-01T02:10:49;0.70;;;0.70;;
21272;SDS011;36726;52.328;10.552;2022-09-01T02:13:20;4.57;;;0.80;;
21272;SDS011;36726;52.328;10.552;2022-09-01T02:16:04;2.75;;;0.68;;
21272;SDS011;36726;52.328;10.552;2022-09-01T02:18:41;0.55;;;0.55;;
21272;SDS011;36726;52.328;10.552;2022-09-01T02:21:14;1.00;;;0.70;;
21272;SDS011;36726;52.328;10.552;2022-09-01T02:23:45;0.98;;;0.73;;
21272;SDS011;36726;52.328;10.552;2022-09-01T02:26:22;0.65;;;0.57;;
21272;SDS011;36726;52.328;10.552;2022-09-01T02:28:53;2.10;;;0.73;;
21272;SDS011;36726;52.328;10.552;2022-09-01T02:31:27;1.27;;;0.90;;
21272;SDS011;36726;52.328;10.552;2022-09-01T02:33:57;5.32;;;0.75;;
21272;SDS011;36726;52.328;10.552;2022-09-01T02:36:24;2.25;;;0.85;;
21272;SDS011;36726;52.328;10.552;2022-09-01T02:38:52;0.68;;;0.65;;
21272;SDS011;36726;52.328;10.552;2022-09-01T02:41:22;1.10;;;0.90;;
21272;SDS011;36726;52.328;10.552;2022-09-01T02:43:55;0.90;;;0.75;;
21272;SDS011;36726;52.328;10.552;2022-09-01T02:46:22;1.67;;;0.80;;
21272;SDS011;36726;52.328;10.552;2022-09-01T02:48:51;1.42;;;0.80;;
21272;SDS011;36726;52.328;10.552;2022-09-01T02:51:19;0.77;;;0.60;;
21272;SDS011;36726;52.328;10.552;2022-09-01T02:53:50;1.10;;;0.80;;
21272;SDS011;36726;52.328;10.552;2022-09-01T02:56:23;0.95;;;0.70;;
21272;SDS011;36726;52.328;10.552;2022-09-01T02:58:52;1.05;;;0.70;;
21272;SDS011;36726;52.328;10.552;2022-09-01T03:01:31;0.88;;;0.60;;
21272;SDS011;36726;52.328;10.552;2022-09-01T03:04:00;2.33;;;0.68;;
21272;SDS011;36726;52.328;10.552;2022-09-01T03:06:29;0.63;;;0.57;;
21272;SDS011;36726;52.328;10.552;2022-09-01T03:09:00;0.80;;;0.63;;
21272;SDS011;36726;52.328;10.552;2022-09-01T03:11:28;0.88;;;0.80;;
21272;SDS011;36726;52.328;10.552;2022-09-01T03:13:57;0.80;;;0.80;;
21272;SDS011;36726;52.328;10.552;2022-09-01T03:16:23;1.25;;;0.93;;
21272;SDS011;36726;52.328;10.552;2022-09-01T03:18:51;1.17;;;0.70;;
21272;SDS011;36726;52.328;10.552;2022-09-01T03:21:19;2.35;;;0.70;;
21272;SDS011;36726;52.328;10.552;2022-09-01T03:23:46;1.60;;;0.80;;
21272;SDS011;36726;52.328;10.552;2022-09-01T03:26:15;1.80;;;0.88;;
21272;SDS011;36726;52.328;10.552;2022-09-01T03:28:44;1.65;;;0.70;;
21272;SDS011;36726;52.328;10.552;2022-09-01T03:31:11;1.52;;;0.70;;
21272;SDS011;36726;52.328;10.552;2022-09-01T03:33:38;1.30;;;0.80;;
21272;SDS011;36726;52.328;10.552;2022-09-01T03:36:10;0.98;;;0.75;;
21272;SDS011;36726;52.328;10.552;2022-09-01T03:38:45;1.20;;;0.90;;
21272;SDS011;36726;52.328;10.552;2022-09-01T03:41:16;1.23;;;0.90;;
21272;SDS011;36726;52.328;10.552;2022-09-01T03:43:47;2.45;;;0.80;;
21272;SDS011;36726;52.328;10.552;2022-09-01T03:46:15;1.33;;;1.00;;
21272;SDS011;36726;52.328;10.552;2022-09-01T03:48:48;3.17;;;0.98;;
21272;SDS011;36726;52.328;10.552;2022-09-01T03:51:18;1.10;;;0.93;;
21272;SDS011;36726;52.328;10.552;2022-09-01T03:53:48;1.40;;;1.15;;
21272;SDS011;36726;52.328;10.552;2022-09-01T03:56:20;0.77;;;0.77;;
21272;SDS011;36726;52.328;10.552;2022-09-01T03:58:47;1.00;;;0.80;;
21272;SDS011;36726;52.328;10.552;2022-09-01T04:01:15;0.93;;;0.80;;
21272;SDS011;36726;52.328;10.552;2022-09-01T04:03:43;0.77;;;0.73;;
21272;SDS011;36726;52.328;10.552;2022-09-01T04:06:17;1.27;;;0.80;;
21272;SDS011;36726;52.328;10.552;2022-09-01T04:08:44;1.77;;;0.90;;
21272;SDS011;36726;52.328;10.552;2022-09-01T04:11:14;1.02;;;0.93;;
21272;SDS011;36726;52.328;10.552;2022-09-01T04:13:45;1.33;;;0.90;;
21272;SDS011;36726;52.328;10.552;2022-09-01T04:16:19;0.95;;;0.90;;
21272;SDS011;36726;52.328;10.552;2022-09-01T04:19:07;1.95;;;0.80;;
21272;SDS011;36726;52.328;10.552;2022-09-01T04:21:52;2.30;;;1.10;;
21272;SDS011;36726;52.328;10.552;2022-09-01T04:24:22;1.02;;;0.88;;
21272;SDS011;36726;52.328;10.552;2022-09-01T04:26:51;1.20;;;0.90;;
21272;SDS011;36726;52.328;10.552;2022-09-01T04:29:18;0.88;;;0.70;;
21272;SDS011;36726;52.328;10.552;2022-09-01T04:31:58;3.65;;;0.88;;
21272;SDS011;36726;52.328;10.552;2022-09-01T04:34:30;1.70;;;0.93;;
21272;SDS011;36726;52.328;10.552;2022-09-01T04:37:10;3.25;;;0.95;;
21272;SDS011;36726;52.328;10.552;2022-09-01T04:39:41;1.63;;;1.10;;
21272;SDS011;36726;52.328;10.552;2022-09-01T04:42:19;1.10;;;0.80;;
21272;SDS011;36726;52.328;10.552;2022-09-01T04:44:49;1.75;;;1.10;;
21272;SDS011;36726;52.328;10.552;2022-09-01T04:47:21;2.60;;;1.10;;
21272;SDS011;36726;52.328;10.552;2022-09-01T04:50:01;1.10;;;0.90;;
21272;SDS011;36726;52.328;10.552;2022-09-01T04:52:29;1.45;;;0.95;;
21272;SDS011;36726;52.328;10.552;2022-09-01T04:54:58;1.35;;;1.10;;
21272;SDS011;36726;52.328;10.552;2022-09-01T04:57:25;1.67;;;1.10;;
21272;SDS011;36726;52.328;10.552;2022-09-01T04:59:53;1.55;;;0.93;;
21272;SDS011;36726;52.328;10.552;2022-09-01T05:02:22;5.03;;;0.95;;
21272;SDS011;36726;52.328;10.552;2022-09-01T05:04:52;1.08;;;0.80;;
21272;SDS011;36726;52.328;10.552;2022-09-01T05:07:20;3.28;;;1.08;;
21272;SDS011;36726;52.328;10.552;2022-09-01T05:09:48;1.65;;;1.00;;
21272;SDS011;36726;52.328;10.552;2022-09-01T05:12:40;1.58;;;0.98;;
21272;SDS011;36726;52.328;10.552;2022-09-01T05:15:11;3.25;;;1.15;;
21272;SDS011;36726;52.328;10.552;2022-09-01T05:17:39;0.70;;;0.70;;
21272;SDS011;36726;52.328;10.552;2022-09-01T05:20:06;1.55;;;1.05;;
21272;SDS011;36726;52.328;10.552;2022-09-01T05:22:35;1.20;;;1.10;;
21272;SDS011;36726;52.328;10.552;2022-09-01T05:25:05;1.02;;;0.90;;
21272;SDS011;36726;52.328;10.552;2022-09-01T05:27:44;1.17;;;0.90;;
21272;SDS011;36726;52.328;10.552;2022-09-01T05:30:19;0.70;;;0.70;;
21272;SDS011;36726;52.328;10.552;2022-09-01T05:32:47;1.58;;;1.00;;
21272;SDS011;36726;52.328;10.552;2022-09-01T05:35:15;1.38;;;0.88;;
21272;SDS011;36726;52.328;10.552;2022-09-01T05:37:41;2.95;;;1.40;;
21272;SDS011;36726;52.328;10.552;2022-09-01T05:40:09;1.10;;;1.00;;
21272;SDS011;36726;52.328;10.552;2022-09-01T05:42:43;1.73;;;1.00;;
21272;SDS011;36726;52.328;10.552;2022-09-01T05:45:10;1.80;;;1.13;;
21272;SDS011;36726;52.328;10.552;2022-09-01T05:47:37;1.45;;;1.05;;
21272;SDS011;36726;52.328;10.552;2022-09-01T05:50:04;1.20;;;1.05;;
21272;SDS011;36726;52.328;10.552;2022-09-01T05:52:39;1.40;;;1.20;;
21272;SDS011;36726;52.328;10.552;2022-09-01T05:55:09;1.77;;;1.27;;
21272;SDS011;36726;52.328;10.552;2022-09-01T05:57:39;1.58;;;1.00;;
21272;SDS011;36726;52.328;10.552;2022-09-01T06:00:07;1.73;;;1.08;;
21272;SDS011;36726;52.328;10.552;2022-09-01T06:02:39;1.27;;;0.95;;
21272;SDS011;36726;52.328;10.552;2022-09-01T06:05:12;1.63;;;1.20;;
21272;SDS011;36726;52.328;10.552;2022-09-01T06:07:39;2.50;;;1.13;;
21272;SDS011;36726;52.328;10.552;2022-09-01T06:10:09;2.10;;;1.08;;
21272;SDS011;36726;52.328;10.552;2022-09-01T06:12:36;1.35;;;1.25;;
21272;SDS011;36726;52.328;10.552;2022-09-01T06:15:03;1.38;;;1.20;;
21272;SDS011;36726;52.328;10.552;2022-09-01T06:17:32;2.42;;;1.60;;
21272;SDS011;36726;52.328;10.552;2022-09-01T06:20:02;1.60;;;1.25;;
21272;SDS011;36726;52.328;10.552;2022-09-01T06:22:38;1.60;;;1.20;;
21272;SDS011;36726;52.328;10.552;2022-09-01T06:25:07;2.08;;;1.00;;
21272;SDS011;36726;52.328;10.552;2022-09-01T06:27:36;1.75;;;1.30;;
21272;SDS011;36726;52.328;10.552;2022-09-01T06:30:13;2.95;;;1.83;;
21272;SDS011;36726;52.328;10.552;2022-09-01T06:32:53;3.60;;;1.50;;
21272;SDS011;36726;52.328;10.552;2022-09-01T06:35:21;1.58;;;1.20;;
21272;SDS011;36726;52.328;10.552;2022-09-01T06:37:55;1.92;;;1.33;;
21272;SDS011;36726;52.328;10.552;2022-09-01T06:40:33;1.70;;;1.17;;
21272;SDS011;36726;52.328;10.552;2022-09-01T06:43:01;1.58;;;1.30;;
21272;SDS011;36726;52.328;10.552;2022-09-01T06:45:38;1.77;;;1.33;;
21272;SDS011;36726;52.328;10.552;2022-09-01T06:48:10;1.63;;;1.20;;
21272;SDS011;36726;52.328;10.552;2022-09-01T06:50:42;1.17;;;1.08;;
21272;SDS011;36726;52.328;10.552;2022-09-01T06:53:29;1.10;;;0.93;;
21272;SDS011;36726;52.328;10.552;2022-09-01T06:55:58;1.60;;;0.90;;
21272;SDS011;36726;52.328;10.552;2022-09-01T06:58:25;1.52;;;0.70;;
21272;SDS011;36726;52.328;10.552;2022-09-01T07:00:52;3.08;;;1.00;;
21272;SDS011;36726;52.328;10.552;2022-09-01T07:03:19;0.90;;;0.60;;
21272;SDS011;36726;52.328;10.552;2022-09-01T07:05:58;0.70;;;0.65;;
21272;SDS011;36726;52.328;10.552;2022-09-01T07:08:46;3.05;;;0.82;;
21272;SDS011;36726;52.328;10.552;2022-09-01T07:11:35;1.50;;;0.68;;
21272;SDS011;36726;52.328;10.552;2022-09-01T07:14:23;1.15;;;0.50;;
21272;SDS011;36726;52.328;10.552;2022-09-01T07:16:50;0.52;;;0.52;;
21272;SDS011;36726;52.328;10.552;2022-09-01T07:19:36;2.00;;;0.60;;
21272;SDS011;36726;52.328;10.552;2022-09-01T07:22:19;2.47;;;0.43;;
21272;SDS011;36726;52.328;10.552;2022-09-01T07:25:06;0.70;;;0.60;;
21272;SDS011;36726;52.328;10.552;2022-09-01T07:27:48;0.80;;;0.40;;
21272;SDS011;36726;52.328;10.552;2022-09-01T07:30:17;1.00;;;0.60;;
21272;SDS011;36726;52.328;10.552;2022-09-01T07:33:05;0.93;;;0.47;;
21272;SDS011;36726;52.328;10.552;2022-09-01T07:35:57;1.58;;;0.40;;
21272;SDS011;36726;52.328;10.552;2022-09-01T07:38:44;0.50;;;0.40;;
21272;SDS011;36726;52.328;10.552;2022-09-01T07:41:34;0.55;;;0.43;;
21272;SDS011;36726;52.328;10.552;2022-09-01T07:44:56;1.27;;;0.50;;
21272;SDS011;36726;52.328;10.552;2022-09-01T07:47:56;1.50;;;0.40;;
21272;SDS011;36726;52.328;10.552;2022-09-01T07:50:33;0.63;;;0.50;;
21272;SDS011;36726;52.328;10.552;2022-09-01T07:53:23;0.98;;;0.47;;
21272;SDS011;36726;52.328;10.552;2022-09-01T07:55:53;1.00;;;0.50;;
21272;SDS011;36726;52.328;10.552;2022-09-01T07:58:23;0.63;;;0.57;;
21272;SDS011;36726;52.328;10.552;2022-09-01T08:00:58;0.40;;;0.30;;
21272;SDS011;36726;52.328;10.552;2022-09-01T08:03:29;0.47;;;0.45;;
21272;SDS011;36726;52.328;10.552;2022-09-01T08:06:00;1.30;;;0.40;;
21272;SDS011;36726;52.328;10.552;2022-09-01T08:08:33;0.47;;;0.30;;
21272;SDS011;36726;52.328;10.552;2022-09-01T08:11:01;0.95;;;0.43;;
21272;SDS011;36726;52.328;10.552;2022-09-01T08:13:31;1.10;;;0.50;;
21272;SDS011;36726;52.328;10.552;2022-09-01T08:16:06;1.85;;;0.52;;
21272;SDS011;36726;52.328;10.552;2022-09-01T08:18:42;0.50;;;0.38;;
21272;SDS011;36726;52.328;10.552;2022-09-01T08:21:23;0.73;;;0.50;;
21272;SDS011;36726;52.328;10.552;2022-09-01T08:23:57;0.40;;;0.38;;
21272;SDS011;36726;52.328;10.552;2022-09-01T08:26:25;0.52;;;0.22;;
21272;SDS011;36726;52.328;10.552;2022-09-01T08:28:52;0.30;;;0.20;;
21272;SDS011;36726;52.328;10.552;2022-09-01T08:31:30;0.65;;;0.35;;
21272;SDS011;36726;52.328;10.552;2022-09-01T08:33:58;0.40;;;0.25;;
21272;SDS011;36726;52.328;10.552;2022-09-01T08:36:26;0.70;;;0.30;;
21272;SDS011;36726;52.328;10.552;2022-09-01T08:38:53;0.40;;;0.20;;
21272;SDS011;36726;52.328;10.552;2022-09-01T08:41:24;0.38;;;0.30;;
21272;SDS011;36726;52.328;10.552;2022-09-01T08:44:15;0.20;;;0.20;;
21272;SDS011;36726;52.328;10.552;2022-09-01T08:46:53;0.40;;;0.30;;
21272;SDS011;36726;52.328;10.552;2022-09-01T08:49:26;0.52;;;0.28;;
21272;SDS011;36726;52.328;10.552;2022-09-01T08:57:55;0.60;;;0.32;;
21272;SDS011;36726;52.328;10.552;2022-09-01T09:00:26;0.90;;;0.30;;
21272;SDS011;36726;52.328;10.552;2022-09-01T09:14:20;0.38;;;0.30;;
21272;SDS011;36726;52.328;10.552;2022-09-01T09:17:18;0.63;;;0.30;;
21272;SDS011;36726;52.328;10.552;2022-09-01T09:19:48;1.98;;;0.28;;
21272;SDS011;36726;52.328;10.552;2022-09-01T09:22:16;0.82;;;0.50;;
21272;SDS011;36726;52.328;10.552;2022-09-01T09:24:56;0.22;;;0.22;;
21272;SDS011;36726;52.328;10.552;2022-09-01T09:27:30;0.40;;;0.30;;
21272;SDS011;36726;52.328;10.552;2022-09-01T09:30:09;2.30;;;0.30;;
21272;SDS011;36726;52.328;10.552;2022-09-01T09:35:49;0.50;;;0.40;;
21272;SDS011;36726;52.328;10.552;2022-09-01T09:38:19;0.73;;;0.30;;
21272;SDS011;36726;52.328;10.552;2022-09-01T09:54:29;0.75;;;0.40;;
21272;SDS011;36726;52.328;10.552;2022-09-01T10:02:38;0.38;;;0.28;;
21272;SDS011;36726;52.328;10.552;2022-09-01T10:08:03;0.35;;;0.30;;
21272;SDS011;36726;52.328;10.552;2022-09-01T10:10:45;0.47;;;0.32;;
21272;SDS011;36726;52.328;10.552;2022-09-01T10:13:24;0.70;;;0.30;;
21272;SDS011;36726;52.328;10.552;2022-09-01T10:15:57;0.30;;;0.20;;
21272;SDS011;36726;52.328;10.552;2022-09-01T10:18:29;1.45;;;0.55;;
21272;SDS011;36726;52.328;10.552;2022-09-01T10:21:03;0.63;;;0.40;;
21272;SDS011;36726;52.328;10.552;2022-09-01T10:23:35;0.30;;;0.30;;
21272;SDS011;36726;52.328;10.552;2022-09-01T10:26:06;2.63;;;0.50;;
21272;SDS011;36726;52.328;10.552;2022-09-01T10:28:39;1.02;;;0.40;;
21272;SDS011;36726;52.328;10.552;2022-09-01T10:31:15;0.30;;;0.30;;
21272;SDS011;36726;52.328;10.552;2022-09-01T10:33:43;0.60;;;0.20;;
21272;SDS011;36726;52.328;10.552;2022-09-01T10:36:10;0.40;;;0.40;;
21272;SDS011;36726;52.328;10.552;2022-09-01T10:38:38;1.75;;;0.38;;
21272;SDS011;36726;52.328;10.552;2022-09-01T10:44:33;0.77;;;0.32;;
21272;SDS011;36726;52.328;10.552;2022-09-01T10:47:08;0.50;;;0.20;;
21272;SDS011;36726;52.328;10.552;2022-09-01T10:49:57;0.40;;;0.20;;
21272;SDS011;36726;52.328;10.552;2022-09-01T10:55:19;0.50;;;0.30;;
21272;SDS011;36726;52.328;10.552;2022-09-01T10:57:53;1.75;;;0.40;;
21272;SDS011;36726;52.328;10.552;2022-09-01T11:11:06;0.80;;;0.25;;
21272;SDS011;36726;52.328;10.552;2022-09-01T11:13:44;0.68;;;0.30;;
21272;SDS011;36726;52.328;10.552;2022-09-01T11:16:32;0.30;;;0.30;;
21272;SDS011;36726;52.328;10.552;2022-09-01T11:25:04;0.50;;;0.35;;
21272;SDS011;36726;52.328;10.552;2022-09-01T11:30:17;0.52;;;0.40;;
21272;SDS011;36726;52.328;10.552;2022-09-01T11:32:48;1.85;;;0.40;;
21272;SDS011;36726;52.328;10.552;2022-09-01T11:35:19;2.75;;;0.40;;
21272;SDS011;36726;52.328;10.552;2022-09-01T11:37:51;0.50;;;0.30;;
21272;SDS011;36726;52.328;10.552;2022-09-01T11:40:30;0.25;;;0.20;;
21272;SDS011;36726;52.328;10.552;2022-09-01T11:42:59;0.60;;;0.30;;
21272;SDS011;36726;52.328;10.552;2022-09-01T11:46:01;0.75;;;0.40;;
21272;SDS011;36726;52.328;10.552;2022-09-01T11:48:36;0.80;;;0.30;;
21272;SDS011;36726;52.328;10.552;2022-09-01T11:51:04;2.05;;;0.40;;
21272;SDS011;36726;52.328;10.552;2022-09-01T11:53:31;0.20;;;0.20;;
21272;SDS011;36726;52.328;10.552;2022-09-01T11:56:10;0.30;;;0.30;;
21272;SDS011;36726;52.328;10.552;2022-09-01T11:58:45;0.85;;;0.30;;
21272;SDS011;36726;52.328;10.552;2022-09-01T12:03:47;4.22;;;0.30;;
21272;SDS011;36726;52.328;10.552;2022-09-01T12:06:26;0.10;;;0.10;;
21272;SDS011;36726;52.328;10.552;2022-09-01T12:08:58;0.40;;;0.30;;
21272;SDS011;36726;52.328;10.552;2022-09-01T12:11:29;0.75;;;0.40;;
21272;SDS011;36726;52.328;10.552;2022-09-01T12:13:59;0.75;;;0.30;;
21272;SDS011;36726;52.328;10.552;2022-09-01T12:16:37;0.77;;;0.32;;
21272;SDS011;36726;52.328;10.552;2022-09-01T12:19:07;3.03;;;0.30;;
21272;SDS011;36726;52.328;10.552;2022-09-01T12:21:55;0.25;;;0.25;;
21272;SDS011;36726;52.328;10.552;2022-09-01T12:24:43;3.25;;;0.50;;
21272;SDS011;36726;52.328;10.552;2022-09-01T12:27:14;1.45;;;0.10;;
21272;SDS011;36726;52.328;10.552;2022-09-01T12:29:41;0.73;;;0.30;;
21272;SDS011;36726;52.328;10.552;2022-09-01T12:32:08;0.73;;;0.35;;
21272;SDS011;36726;52.328;10.552;2022-09-01T12:37:10;0.65;;;0.30;;
21272;SDS011;36726;52.328;10.552;2022-09-01T12:39:46;0.47;;;0.20;;
21272;SDS011;36726;52.328;10.552;2022-09-01T12:44:46;0.15;;;0.10;;
21272;SDS011;36726;52.328;10.552;2022-09-01T12:52:49;0.60;;;0.32;;
21272;SDS011;36726;52.328;10.552;2022-09-01T12:55:24;1.27;;;0.20;;
21272;SDS011;36726;52.328;10.552;2022-09-01T12:58:19;4.45;;;0.30;;
21272;SDS011;36726;52.328;10.552;2022-09-01T13:03:25;1.63;;;0.25;;
21272;SDS011;36726;52.328;10.552;2022-09-01T13:05:53;2.05;;;0.40;;
21272;SDS011;36726;52.328;10.552;2022-09-01T13:08:24;0.40;;;0.30;;
21272;SDS011;36726;52.328;10.552;2022-09-01T13:10:55;2.90;;;0.40;;
21272;SDS011;36726;52.328;10.552;2022-09-01T13:13:26;3.72;;;0.43;;
21272;SDS011;36726;52.328;10.552;2022-09-01T13:15:54;0.32;;;0.20;;
21272;SDS011;36726;52.328;10.552;2022-09-01T13:18:25;1.13;;;0.30;;
21272;SDS011;36726;52.328;10.552;2022-09-01T13:20:53;0.63;;;0.10;;
21272;SDS011;36726;52.328;10.552;2022-09-01T13:23:21;1.42;;;0.30;;
21272;SDS011;36726;52.328;10.552;2022-09-01T13:25:48;0.82;;;0.30;;
21272;SDS011;36726;52.328;10.552;2022-09-01T13:28:15;1.02;;;0.40;;
21272;SDS011;36726;52.328;10.552;2022-09-01T13:30:44;0.28;;;0.20;;
21272;SDS011;36726;52.328;10.552;2022-09-01T13:33:38;0.68;;;0.32;;
21272;SDS011;36726;52.328;10.552;2022-09-01T13:36:25;0.10;;;0.10;;
21272;SDS011;36726;52.328;10.552;2022-09-01T13:39:11;0.73;;;0.30;;
21272;SDS011;36726;52.328;10.552;2022-09-01T13:41:37;0.70;;;0.40;;
21272;SDS011;36726;52.328;10.552;2022-09-01T13:44:04;1.00;;;0.30;;
21272;SDS011;36726;52.328;10.552;2022-09-01T13:46:31;0.15;;;0.10;;
21272;SDS011;36726;52.328;10.552;2022-09-01T13:48:57;0.30;;;0.20;;
21272;SDS011;36726;52.328;10.552;2022-09-01T13:51:28;1.48;;;0.35;;
21272;SDS011;36726;52.328;10.552;2022-09-01T13:53:55;1.48;;;0.52;;
21272;SDS011;36726;52.328;10.552;2022-09-01T13:56:21;0.22;;;0.20;;
21272;SDS011;36726;52.328;10.552;2022-09-01T13:58:48;2.83;;;0.50;;
21272;SDS011;36726;52.328;10.552;2022-09-01T14:01:15;0.50;;;0.20;;
21272;SDS011;36726;52.328;10.552;2022-09-01T14:03:42;0.93;;;0.25;;
21272;SDS011;36726;52.328;10.552;2022-09-01T14:06:09;0.30;;;0.20;;
21272;SDS011;36726;52.328;10.552;2022-09-01T14:08:35;0.40;;;0.30;;
21272;SDS011;36726;52.328;10.552;2022-09-01T14:11:02;1.45;;;0.20;;
21272;SDS011;36726;52.328;10.552;2022-09-01T14:13:29;0.47;;;0.30;;
21272;SDS011;36726;52.328;10.552;2022-09-01T14:15:56;0.77;;;0.20;;
21272;SDS011;36726;52.328;10.552;2022-09-01T14:18:24;1.48;;;0.20;;
21272;SDS011;36726;52.328;10.552;2022-09-01T14:20:58;0.22;;;0.20;;
21272;SDS011;36726;52.328;10.552;2022-09-01T14:23:26;0.35;;;0.30;;
21272;SDS011;36726;52.328;10.552;2022-09-01T14:25:53;3.13;;;0.40;;
21272;SDS011;36726;52.328;10.552;2022-09-01T14:28:20;1.58;;;0.40;;
21272;SDS011;36726;52.328;10.552;2022-09-01T14:30:48;0.60;;;0.30;;
21272;SDS011;36726;52.328;10.552;2022-09-01T14:33:15;1.20;;;0.40;;
21272;SDS011;36726;52.328;10.552;2022-09-01T14:35:44;1.17;;;0.17;;
21272;SDS011;36726;52.328;10.552;2022-09-01T14:38:12;0.32;;;0.20;;
21272;SDS011;36726;52.328;10.552;2022-09-01T14:40:40;0.88;;;0.30;;
21272;SDS011;36726;52.328;10.552;2022-09-01T14:43:09;2.28;;;0.35;;
21272;SDS011;36726;52.328;10.552;2022-09-01T14:45:39;1.20;;;0.30;;
21272;SDS011;36726;52.328;10.552;2022-09-01T14:48:07;0.30;;;0.20;;
21272;SDS011;36726;52.328;10.552;2022-09-01T14:50:37;1.90;;;0.30;;
21272;SDS011;36726;52.328;10.552;2022-09-01T14:53:06;0.43;;;0.20;;
21272;SDS011;36726;52.328;10.552;2022-09-01T14:55:33;0.68;;;0.30;;
21272;SDS011;36726;52.328;10.552;2022-09-01T14:57:59;0.28;;;0.20;;
21272;SDS011;36726;52.328;10.552;2022-09-01T15:00:26;0.20;;;0.20;;
21272;SDS011;36726;52.328;10.552;2022-09-01T15:02:56;0.22;;;0.20;;
21272;SDS011;36726;52.328;10.552;2022-09-01T15:05:23;0.22;;;0.20;;
21272;SDS011;36726;52.328;10.552;2022-09-01T15:07:50;0.25;;;0.22;;
21272;SDS011;36726;52.328;10.552;2022-09-01T15:10:20;0.85;;;0.35;;
21272;SDS011;36726;52.328;10.552;2022-09-01T15:12:51;0.52;;;0.20;;
21272;SDS011;36726;52.328;10.552;2022-09-01T15:15:22;0.20;;;0.20;;
21272;SDS011;36726;52.328;10.552;2022-09-01T15:17:49;0.30;;;0.28;;
21272;SDS011;36726;52.328;10.552;2022-09-01T15:20:16;0.50;;;0.20;;
21272;SDS011;36726;52.328;10.552;2022-09-01T15:23:02;0.32;;;0.20;;
21272;SDS011;36726;52.328;10.552;2022-09-01T15:25:29;0.17;;;0.15;;
21272;SDS011;36726;52.328;10.552;2022-09-01T15:27:56;0.30;;;0.20;;
21272;SDS011;36726;52.328;10.552;2022-09-01T15:30:22;0.20;;;0.20;;
21272;SDS011;36726;52.328;10.552;2022-09-01T15:32:50;0.55;;;0.20;;
21272;SDS011;36726;52.328;10.552;2022-09-01T15:35:18;2.15;;;0.20;;
21272;SDS011;36726;52.328;10.552;2022-09-01T15:37:46;1.65;;;0.25;;
21272;SDS011;36726;52.328;10.552;2022-09-01T15:40:14;0.20;;;0.20;;
21272;SDS011;36726;52.328;10.552;2022-09-01T15:42:41;0.50;;;0.50;;
21272;SDS011;36726;52.328;10.552;2022-09-01T15:45:09;0.30;;;0.28;;
21272;SDS011;36726;52.328;10.552;2022-09-01T15:47:39;3.63;;;0.20;;
21272;SDS011;36726;52.328;10.552;2022-09-01T15:50:11;0.75;;;0.30;;
21272;SDS011;36726;52.328;10.552;2022-09-01T15:52:48;6.15;;;0.40;;
21272;SDS011;36726;52.328;10.552;2022-09-01T15:55:21;1.15;;;0.35;;
21272;SDS011;36726;52.328;10.552;2022-09-01T15:57:50;0.40;;;0.30;;
21272;SDS011;36726;52.328;10.552;2022-09-01T16:00:20;3.83;;;0.20;;
21272;SDS011;36726;52.328;10.552;2022-09-01T16:02:50;1.33;;;0.30;;
21272;SDS011;36726;52.328;10.552;2022-09-01T16:05:17;0.35;;;0.20;;
21272;SDS011;36726;52.328;10.552;2022-09-01T16:07:44;0.60;;;0.40;;
21272;SDS011;36726;52.328;10.552;2022-09-01T16:10:11;2.15;;;0.30;;
21272;SDS011;36726;52.328;10.552;2022-09-01T16:12:40;0.85;;;0.20;;
21272;SDS011;36726;52.328;10.552;2022-09-01T16:15:14;0.65;;;0.17;;
21272;SDS011;36726;52.328;10.552;2022-09-01T16:20:36;0.20;;;0.20;;
21272;SDS011;36726;52.328;10.552;2022-09-01T16:23:13;1.08;;;0.28;;
21272;SDS011;36726;52.328;10.552;2022-09-01T16:25:44;0.40;;;0.20;;
21272;SDS011;36726;52.328;10.552;2022-09-01T16:28:26;0.45;;;0.30;;
21272;SDS011;36726;52.328;10.552;2022-09-01T16:33:27;0.65;;;0.20;;
21272;SDS011;36726;52.328;10.552;2022-09-01T16:49:48;0.50;;;0.25;;
21272;SDS011;36726;52.328;10.552;2022-09-01T16:52:53;0.43;;;0.20;;